METAR AND TAF INFORMATION

METAR FOR SVBI
ADDS - METARS form results

(0659 UTC 24 July 2021)
Data provider http://aviationweather.gov/metar/data/
 
METAR text: SVBI 240603Z AUTO 30002KT NCD 24/24 Q1016
Conditions at: SVBI (BARINAS , VE) observed 0603 UTC 24 July 2021
Temperature: 24.0°C (75°F)
Dewpoint: 24.0°C (75°F) [RH = 100%]
Pressure (altimeter): 30.00 inches Hg (1016.0 mb)
Winds: from the WNW (300 degrees) at 2 MPH (2 knots; 1.0 m/s)
Visibility: missing
Ceiling: at least 12,000 feet AGL
Clouds: sky clear below 12,000 feet AGL
Weather: no significant weather observed at this time

 

AIRPORT MAP

 

RUNWAY INFORMATION

Runway 03 Runway length 3940 ft Runway width 130 ft
Runway elevation 619 ft Runway displaced threshold 0 ft Runway heading 33
Runway 21 Runway length 3940 ft Runway width 130 ft
Runway elevation 619 ft Runway displaced threshold 1480 ft Runway heading 213
Runway 13 Runway length 6560 ft Runway width 135 ft
Runway elevation 619 ft Runway displaced threshold 985 ft Runway heading 123
Runway 31 Runway length 6560 ft Runway width 135 ft
Runway elevation 602 ft Runway displaced threshold 0 ft Runway heading 303

 

AIRPORT FREQUENCIES

Type GND Name GND Frequency 121.9 MHZ
Type TWR Name TWR Frequency 118 MHZ

 

AIRPORT NEAR NAVIGATION AIDS

Type VOR-DME Name Barinas Frequency 117500 KHZ
Type NDB Name Barinas Frequency 220 KHZ